Goessel, Kansas
Current Conditions -  °F | °C
As of 9:55 PM on Thursday 18 Dec 2014 (Local Time) from KEWK Reporting Station
Overcast Overcast  
Wind Chill: 28°   Ceiling: 300
Heat Index: 28°   Visibility: 4mi
Dew Point: 25°   Wind: 0mph
Humidity: 86%   Direction: NA
Pressure: 30.24"   Gusts: NA
Location:  38.25°N, 97.35°W
Report Text: KEWK 190355Z AUTO 00000KT 4SM OVC003 M02/M04 A3024 RMK AO1
Loading
Personal Weather Stations






























Interactive Weather Map New forecast layout! Learn more

10-Day Weather Forecast

Advertisements
Track Severe Weather on mobile